Rochester, Minnesota
Current Conditions -  °F | °C
As of 8:01 PM on Friday 24 Oct 2014 (Local Time) from KRST Reporting Station
Moderate Fog Moderate Fog  
Wind Chill: 57°   Ceiling: 200
Heat Index: 57°   Visibility: 0.25mi
Dew Point: 56°   Wind: 8mph
Humidity: 96%   Direction: 200°SSW
Pressure: 29.91"   Gusts: NA
Location:  44.02°N, 92.46°W
Report Text: KRST 250101Z 20007KT 1/4SM R31/1600V2200FT FG VV002 14/13 A2991 RMK AO2 T01390133
Loading
Personal Weather Stations






























Interactive Weather Map New forecast layout! Learn more

10-Day Weather Forecast

Advertisements
Track Severe Weather on mobile